createdAt,value
2022-08-26T00:00:21.313Z,19.20
2022-08-26T00:03:04.605Z,20.73
2022-08-26T00:05:35.883Z,19.23
2022-08-26T00:08:05.577Z,20.27
2022-08-26T00:10:33.886Z,16.88
2022-08-26T00:13:02.092Z,25.40
2022-08-26T00:15:31.907Z,18.15
2022-08-26T00:18:00.610Z,20.80
2022-08-26T00:20:31.650Z,18.45
2022-08-26T00:23:00.321Z,20.60
2022-08-26T00:25:28.824Z,18.45
2022-08-26T00:27:57.652Z,22.17
2022-08-26T00:30:29.333Z,28.05
2022-08-26T00:33:00.576Z,22.45
2022-08-26T00:35:30.789Z,25.33
2022-08-26T00:38:02.695Z,25.63
2022-08-26T00:40:35.545Z,22.40
2022-08-26T00:43:07.133Z,24.48
2022-08-26T00:45:42.135Z,18.92
2022-08-26T00:48:13.162Z,20.27
2022-08-26T00:50:49.368Z,21.50
2022-08-26T00:53:25.996Z,18.73
2022-08-26T00:56:00.340Z,22.80
2022-08-26T00:58:31.330Z,20.65
2022-08-26T01:00:59.767Z,20.50
2022-08-26T01:03:30.632Z,28.27
2022-08-26T01:06:00.082Z,27.38
2022-08-26T01:08:28.995Z,27.95
2022-08-26T01:10:58.578Z,21.25
2022-08-26T01:13:28.816Z,17.27
2022-08-26T01:15:59.070Z,20.75
2022-08-26T01:21:03.432Z,17.50
2022-08-26T01:23:35.628Z,22.73
2022-08-26T01:26:06.838Z,18.83
2022-08-26T01:28:36.314Z,21.80
2022-08-26T01:31:06.844Z,20.55
2022-08-26T01:33:42.051Z,22.67
2022-08-26T01:36:12.392Z,24.35
2022-08-26T01:38:42.556Z,18.88
2022-08-26T01:41:16.118Z,24.05
2022-08-26T01:43:49.635Z,25.85
2022-08-26T01:46:18.669Z,25.33
2022-08-26T01:48:49.464Z,22.48
2022-08-26T01:51:23.825Z,21.52
2022-08-26T01:53:53.444Z,22.15
2022-08-26T01:56:22.943Z,24.20
2022-08-26T01:58:54.013Z,28.08
2022-08-26T02:01:22.909Z,26.92
2022-08-26T02:04:00.704Z,25.25
2022-08-26T02:06:28.945Z,26.98
2022-08-26T02:09:02.653Z,25.05
2022-08-26T02:11:30.818Z,21.05
2022-08-26T02:14:02.949Z,22.40
2022-08-26T02:16:35.837Z,23.40
2022-08-26T02:19:06.043Z,21.73
2022-08-26T02:21:36.565Z,20.45
2022-08-26T02:24:14.545Z,20.02
2022-08-26T02:26:43.663Z,17.23
2022-08-26T02:29:17.751Z,21.23
2022-08-26T02:31:46.129Z,22.33
2022-08-26T02:34:16.651Z,21.30
2022-08-26T02:36:44.676Z,17.13
2022-08-26T02:39:19.548Z,21.23
2022-08-26T02:41:50.926Z,18.05
2022-08-26T02:44:19.398Z,19.17
2022-08-26T02:46:47.631Z,17.20
2022-08-26T02:49:16.992Z,19.52
2022-08-26T02:51:45.917Z,14.88
2022-08-26T02:54:15.703Z,15.90
2022-08-26T02:56:44.461Z,15.70
2022-08-26T02:59:13.633Z,20.65
2022-08-26T03:01:42.667Z,17.25
2022-08-26T03:04:12.931Z,23.73
2022-08-26T03:09:14.028Z,15.32
2022-08-26T03:11:48.582Z,15.57
2022-08-26T03:14:17.408Z,16.27
2022-08-26T03:16:48.530Z,20.40
2022-08-26T03:19:17.614Z,16.10
2022-08-26T03:21:47.501Z,23.02
2022-08-26T03:24:17.708Z,19.38
2022-08-26T03:26:52.088Z,18.98
2022-08-26T03:29:40.376Z,12.10
2022-08-26T03:32:09.039Z,21.20
2022-08-26T03:34:37.311Z,23.20
2022-08-26T03:37:07.132Z,14.20
2022-08-26T03:39:37.030Z,17.83
2022-08-26T03:42:06.850Z,18.98
2022-08-26T03:44:37.403Z,22.42
2022-08-26T03:47:10.589Z,19.45
2022-08-26T03:49:38.975Z,12.20
2022-08-26T03:52:07.443Z,18.75
2022-08-26T03:54:36.135Z,19.27
2022-08-26T03:57:04.353Z,15.10
2022-08-26T03:59:33.826Z,15.43
2022-08-26T04:02:03.717Z,22.13
2022-08-26T04:04:39.951Z,15.35
2022-08-26T04:07:08.725Z,14.10
2022-08-26T04:09:37.058Z,19.27
2022-08-26T04:12:06.536Z,16.88
2022-08-26T04:14:37.748Z,13.27
2022-08-26T04:17:08.534Z,13.52
2022-08-26T04:19:36.838Z,18.63
2022-08-26T04:22:04.879Z,14.35
2022-08-26T04:24:33.176Z,12.57
2022-08-26T04:27:03.485Z,10.82
2022-08-26T04:29:31.767Z,12.32
2022-08-26T04:32:01.301Z,16.65
2022-08-26T04:34:33.092Z,11.75
2022-08-26T04:37:01.987Z,11.27
2022-08-26T04:39:30.783Z,13.25
2022-08-26T04:42:00.130Z,14.73
2022-08-26T04:44:31.134Z,11.25
2022-08-26T04:46:59.706Z,14.15
2022-08-26T04:49:27.943Z,13.82
2022-08-26T04:52:05.756Z,15.20
2022-08-26T04:54:34.004Z,12.60
2022-08-26T04:57:02.619Z,10.75
2022-08-26T04:59:31.122Z,19.27
2022-08-26T05:01:59.747Z,13.70
2022-08-26T05:04:28.217Z,10.57
2022-08-26T05:07:02.577Z,10.15
2022-08-26T05:09:32.649Z,13.00
2022-08-26T05:12:01.068Z,14.50
2022-08-26T05:14:29.283Z,12.68
2022-08-26T05:16:57.497Z,14.77
2022-08-26T05:19:27.969Z,12.35
2022-08-26T05:21:56.226Z,16.23
2022-08-26T05:24:24.622Z,10.02
2022-08-26T05:26:54.482Z,12.65
2022-08-26T05:29:25.130Z,14.45
2022-08-26T05:31:54.080Z,12.80
2022-08-26T05:34:25.763Z,13.10
2022-08-26T05:36:58.463Z,12.55
2022-08-26T05:39:26.588Z,10.73
2022-08-26T05:41:56.117Z,15.00
2022-08-26T05:44:24.657Z,14.55
2022-08-26T05:46:53.050Z,12.40
2022-08-26T05:49:22.535Z,17.42
2022-08-26T05:51:54.961Z,11.73
2022-08-26T05:54:23.029Z,15.85
2022-08-26T05:56:51.990Z,16.10
2022-08-26T05:59:24.323Z,13.55
2022-08-26T06:01:53.406Z,13.02
2022-08-26T06:04:23.154Z,10.90
2022-08-26T06:06:54.966Z,11.77
2022-08-26T06:09:23.459Z,10.23
2022-08-26T06:11:52.246Z,15.23
2022-08-26T06:14:23.264Z,15.13
2022-08-26T06:16:51.673Z,8.75
2022-08-26T06:19:21.689Z,15.20
2022-08-26T06:21:54.859Z,11.55
2022-08-26T06:24:41.232Z,9.93
2022-08-26T06:27:13.761Z,17.35
2022-08-26T06:29:43.683Z,10.50
2022-08-26T06:32:11.824Z,12.05
2022-08-26T06:34:40.046Z,9.75
2022-08-26T06:37:09.046Z,8.25
2022-08-26T06:39:41.171Z,10.77
2022-08-26T06:42:10.922Z,7.65
2022-08-26T06:44:41.113Z,10.27
2022-08-26T06:47:10.792Z,9.88
2022-08-26T06:49:39.837Z,16.63
2022-08-26T06:52:08.013Z,17.70
2022-08-26T06:54:37.158Z,10.68
2022-08-26T06:57:07.504Z,11.45
2022-08-26T06:59:35.597Z,12.77
2022-08-26T07:02:04.094Z,15.73
2022-08-26T07:04:35.891Z,12.77
2022-08-26T07:07:04.079Z,15.80
2022-08-26T07:09:33.277Z,16.48
2022-08-26T07:12:02.554Z,13.13
2022-08-26T07:14:31.819Z,8.75
2022-08-26T07:17:01.540Z,10.10
2022-08-26T07:19:31.616Z,11.95
2022-08-26T07:22:04.226Z,15.80
2022-08-26T07:24:33.553Z,14.25
2022-08-26T07:27:05.590Z,12.88
2022-08-26T07:29:34.664Z,11.52
2022-08-26T07:32:03.966Z,17.23
2022-08-26T07:34:33.450Z,14.77
2022-08-26T07:37:03.663Z,11.55
2022-08-26T07:39:32.861Z,11.27
2022-08-26T07:42:01.669Z,9.57
2022-08-26T07:44:36.361Z,11.25
2022-08-26T07:47:24.556Z,12.00
2022-08-26T07:49:53.016Z,10.98
2022-08-26T07:52:26.633Z,12.60
2022-08-26T07:54:56.318Z,11.60
2022-08-26T07:57:24.806Z,12.52
2022-08-26T07:59:54.021Z,12.02
2022-08-26T08:02:24.668Z,10.20
2022-08-26T08:04:53.412Z,9.27
2022-08-26T08:07:38.550Z,14.93
2022-08-26T08:10:13.709Z,13.73
2022-08-26T08:15:13.823Z,11.27
2022-08-26T08:17:43.489Z,11.65
2022-08-26T08:20:12.476Z,13.68
2022-08-26T08:22:42.547Z,11.07
2022-08-26T08:25:12.451Z,8.13
2022-08-26T08:27:42.222Z,8.27
2022-08-26T08:30:13.795Z,9.77
2022-08-26T08:32:43.695Z,14.85
2022-08-26T08:35:13.479Z,15.27
2022-08-26T08:37:43.772Z,14.40
2022-08-26T08:42:46.902Z,12.35
2022-08-26T08:45:19.213Z,14.60
2022-08-26T08:47:50.496Z,8.43
2022-08-26T08:50:23.431Z,11.32
2022-08-26T08:53:00.464Z,11.30
2022-08-26T08:55:37.762Z,16.27
2022-08-26T08:58:09.243Z,11.18
2022-08-26T09:00:45.007Z,11.98
2022-08-26T09:03:24.656Z,10.73
2022-08-26T09:05:53.726Z,15.93
2022-08-26T09:08:29.747Z,13.25
2022-08-26T09:11:00.511Z,11.07
2022-08-26T09:13:29.297Z,14.77
2022-08-26T09:16:08.382Z,14.35
2022-08-26T09:18:49.537Z,11.85
2022-08-26T09:21:20.750Z,12.90
2022-08-26T09:23:54.133Z,11.13
2022-08-26T09:26:29.080Z,11.02
2022-08-26T09:29:00.156Z,11.30
2022-08-26T09:31:30.783Z,11.05
2022-08-26T09:34:17.897Z,13.55
2022-08-26T09:36:49.702Z,10.25
2022-08-26T09:39:31.932Z,11.52
2022-08-26T09:42:22.452Z,13.32
2022-08-26T09:44:56.593Z,14.65
2022-08-26T09:47:30.286Z,6.82
2022-08-26T09:50:04.835Z,11.75
2022-08-26T09:52:38.485Z,11.13
2022-08-26T09:55:14.805Z,8.38
2022-08-26T09:57:49.671Z,10.18
2022-08-26T10:00:42.026Z,7.15
2022-08-26T10:03:12.485Z,10.52
2022-08-26T10:05:48.606Z,10.65
2022-08-26T10:08:25.676Z,12.00
2022-08-26T10:10:57.665Z,8.82
2022-08-26T10:13:32.967Z,12.15
2022-08-26T10:16:10.634Z,10.23
2022-08-26T10:18:42.217Z,12.48
2022-08-26T10:21:13.110Z,13.85
2022-08-26T10:23:43.439Z,7.75
2022-08-26T10:26:17.944Z,11.93
2022-08-26T10:28:50.650Z,8.20
2022-08-26T10:31:27.848Z,10.80
2022-08-26T10:33:59.997Z,9.65
2022-08-26T10:37:14.525Z,6.93
2022-08-26T10:39:43.208Z,8.98
2022-08-26T10:42:18.726Z,6.78
2022-08-26T10:44:47.292Z,8.25
2022-08-26T10:47:19.639Z,9.68
2022-08-26T10:49:48.826Z,5.88
2022-08-26T10:52:23.486Z,6.03
2022-08-26T10:55:03.161Z,8.60
2022-08-26T10:57:41.425Z,9.95
2022-08-26T11:00:27.698Z,8.70
2022-08-26T11:03:00.603Z,8.77
2022-08-26T11:05:29.382Z,5.95
2022-08-26T11:08:29.551Z,10.75
2022-08-26T11:10:59.938Z,7.55
2022-08-26T11:14:06.109Z,8.27
2022-08-26T11:16:42.886Z,15.02
2022-08-26T11:19:14.080Z,12.75
2022-08-26T11:22:06.232Z,7.57
2022-08-26T11:25:01.644Z,10.38
2022-08-26T11:28:04.111Z,9.45
2022-08-26T11:30:47.696Z,6.47
2022-08-26T11:33:58.194Z,10.38
2022-08-26T11:37:04.138Z,8.63
2022-08-26T11:39:36.733Z,9.27
2022-08-26T11:42:20.102Z,9.38
2022-08-26T11:44:49.853Z,7.57
2022-08-26T11:47:28.709Z,8.32
2022-08-26T11:50:15.810Z,6.47
2022-08-26T11:52:52.883Z,7.75
2022-08-26T11:55:23.255Z,9.13
2022-08-26T12:00:25.114Z,11.55
2022-08-26T12:02:55.739Z,6.47
2022-08-26T12:05:30.828Z,10.13
2022-08-26T12:08:04.268Z,8.05
2022-08-26T12:10:35.644Z,13.75
2022-08-26T12:13:05.472Z,7.05
2022-08-26T12:15:35.796Z,7.27
2022-08-26T12:18:28.899Z,13.48
2022-08-26T12:21:00.873Z,9.27
2022-08-26T12:23:41.912Z,8.05
2022-08-26T12:26:15.543Z,7.50
2022-08-26T12:28:45.675Z,10.65
2022-08-26T12:31:22.653Z,10.02
2022-08-26T12:33:53.236Z,8.68
2022-08-26T12:36:25.566Z,8.63
2022-08-26T12:38:58.004Z,9.32
2022-08-26T12:41:39.898Z,6.13
2022-08-26T12:44:08.413Z,9.70
2022-08-26T12:46:36.493Z,7.78
2022-08-26T12:49:06.172Z,9.98
2022-08-26T12:51:42.046Z,7.63
2022-08-26T12:54:16.059Z,11.07
2022-08-26T12:56:44.567Z,5.35
2022-08-26T12:59:23.419Z,6.55
2022-08-26T13:01:52.692Z,5.07
2022-08-26T13:04:37.583Z,5.63
2022-08-26T13:07:23.229Z,10.25
2022-08-26T13:09:53.253Z,9.48
2022-08-26T13:12:27.371Z,9.13
2022-08-26T13:14:56.190Z,7.60
2022-08-26T13:17:24.545Z,9.38
2022-08-26T13:19:54.411Z,8.23
2022-08-26T13:22:25.090Z,11.07
2022-08-26T13:27:26.411Z,8.88
2022-08-26T13:29:55.721Z,7.68
2022-08-26T13:32:27.515Z,7.88
2022-08-26T13:34:58.879Z,8.30
2022-08-26T13:37:34.397Z,9.15
2022-08-26T13:40:04.984Z,8.02
2022-08-26T13:42:33.181Z,13.90
2022-08-26T13:45:03.033Z,8.10
2022-08-26T13:47:31.619Z,10.05
2022-08-26T13:50:01.118Z,9.63
2022-08-26T13:52:30.661Z,7.55
2022-08-26T13:55:00.459Z,9.68
2022-08-26T13:57:30.398Z,6.65
2022-08-26T14:00:00.150Z,6.75
2022-08-26T14:02:29.222Z,7.77
2022-08-26T14:04:57.404Z,9.23
2022-08-26T14:07:26.943Z,9.85
2022-08-26T14:09:55.325Z,7.35
2022-08-26T14:12:23.653Z,4.78
2022-08-26T14:14:52.136Z,9.73
2022-08-26T14:17:22.202Z,7.05
2022-08-26T14:19:51.421Z,7.55
2022-08-26T14:22:22.420Z,10.20
2022-08-26T14:24:52.158Z,10.20
2022-08-26T14:27:20.367Z,8.70
2022-08-26T14:29:48.555Z,10.68
2022-08-26T14:32:23.226Z,9.60
2022-08-26T14:34:52.115Z,7.38
2022-08-26T14:37:20.839Z,4.47
2022-08-26T14:39:49.191Z,7.40
2022-08-26T14:42:22.532Z,7.03
2022-08-26T14:44:54.505Z,5.97
2022-08-26T14:47:22.607Z,8.93
2022-08-26T14:49:50.744Z,5.43
2022-08-26T14:52:19.412Z,9.18
2022-08-26T14:54:46.572Z,6.07
2022-08-26T14:57:15.134Z,8.30
2022-08-26T14:59:49.665Z,7.88
2022-08-26T15:02:32.594Z,8.10
2022-08-26T15:05:02.555Z,5.93
2022-08-26T15:07:30.952Z,8.63
2022-08-26T15:09:59.179Z,8.65
2022-08-26T15:12:28.166Z,7.70
2022-08-26T15:14:57.684Z,4.80
2022-08-26T15:17:26.309Z,5.57
2022-08-26T15:19:54.626Z,6.78
2022-08-26T15:22:22.860Z,7.70
2022-08-26T15:24:51.831Z,5.97
2022-08-26T15:27:22.183Z,7.70
2022-08-26T15:29:50.279Z,6.40
2022-08-26T15:32:19.898Z,7.45
2022-08-26T15:34:49.994Z,9.73
2022-08-26T15:37:18.349Z,7.93
2022-08-26T15:39:46.626Z,7.80
2022-08-26T15:42:15.118Z,8.02
2022-08-26T15:44:44.805Z,5.03
2022-08-26T15:47:13.805Z,8.75
2022-08-26T15:49:43.716Z,11.10
2022-08-26T15:52:11.896Z,12.68
2022-08-26T15:54:41.003Z,6.85
2022-08-26T15:57:11.463Z,6.65
2022-08-26T15:59:40.780Z,5.72
2022-08-26T16:02:09.227Z,7.28
2022-08-26T16:04:37.618Z,5.25
2022-08-26T16:07:07.176Z,6.30
2022-08-26T16:09:35.262Z,8.32
2022-08-26T16:12:04.059Z,6.70
2022-08-26T16:14:32.341Z,7.75
2022-08-26T16:17:00.522Z,5.45
2022-08-26T16:19:28.866Z,5.38
2022-08-26T16:21:57.158Z,8.63
2022-08-26T16:24:30.384Z,3.65
2022-08-26T16:26:59.145Z,7.53
2022-08-26T16:29:27.626Z,8.88
2022-08-26T16:31:55.873Z,8.23
2022-08-26T16:34:24.334Z,5.75
2022-08-26T16:36:52.546Z,6.60
2022-08-26T16:39:20.750Z,11.15
2022-08-26T16:41:50.505Z,6.43
2022-08-26T16:44:19.235Z,5.83
2022-08-26T16:46:47.368Z,5.68
2022-08-26T16:49:16.166Z,7.43
2022-08-26T16:51:44.489Z,5.07
2022-08-26T16:54:12.815Z,7.07
2022-08-26T16:56:41.487Z,7.03
2022-08-26T16:59:12.254Z,5.07
2022-08-26T17:01:40.514Z,5.38
2022-08-26T17:04:09.181Z,5.07
2022-08-26T17:06:38.303Z,8.90
2022-08-26T17:09:06.936Z,8.13
2022-08-26T17:11:35.466Z,7.90
2022-08-26T17:14:03.624Z,7.93
2022-08-26T17:16:33.555Z,10.55
2022-08-26T17:19:02.622Z,11.23
2022-08-26T17:21:30.918Z,9.35
2022-08-26T17:23:59.428Z,7.85
2022-08-26T17:26:27.866Z,8.13
2022-08-26T17:28:56.148Z,9.43
2022-08-26T17:31:24.831Z,12.50
2022-08-26T17:33:55.632Z,8.73
2022-08-26T17:36:28.056Z,7.55
2022-08-26T17:38:57.988Z,8.73
2022-08-26T17:41:26.259Z,9.55
2022-08-26T17:43:54.671Z,6.60
2022-08-26T17:46:23.364Z,5.78
2022-08-26T17:48:51.523Z,8.70
2022-08-26T17:51:21.078Z,8.90
2022-08-26T17:53:49.800Z,8.80
2022-08-26T17:56:23.970Z,11.73
2022-08-26T17:58:52.710Z,8.85
2022-08-26T18:01:21.318Z,10.05
2022-08-26T18:03:50.035Z,9.05
2022-08-26T18:06:18.393Z,8.45
2022-08-26T18:08:48.337Z,10.00
2022-08-26T18:11:18.293Z,9.48
2022-08-26T18:13:47.763Z,12.45
2022-08-26T18:16:17.865Z,9.48
2022-08-26T18:18:46.588Z,11.02
2022-08-26T18:21:17.117Z,9.65
2022-08-26T18:23:47.875Z,14.05
2022-08-26T18:26:20.685Z,10.20
2022-08-26T18:28:48.732Z,10.80
2022-08-26T18:31:16.942Z,10.63
2022-08-26T18:33:45.745Z,9.82
2022-08-26T18:36:19.624Z,8.63
2022-08-26T18:38:50.750Z,11.95
2022-08-26T18:41:20.779Z,14.30
2022-08-26T18:43:50.616Z,7.05
2022-08-26T18:46:22.086Z,8.82
2022-08-26T18:48:50.967Z,8.02
2022-08-26T18:51:20.994Z,8.75
2022-08-26T18:53:51.114Z,6.93
2022-08-26T18:56:19.906Z,9.23
2022-08-26T18:58:48.196Z,8.52
2022-08-26T19:01:17.328Z,8.27
2022-08-26T19:03:46.724Z,11.85
2022-08-26T19:06:16.491Z,8.77
2022-08-26T19:08:44.955Z,8.25
2022-08-26T19:11:14.922Z,9.60
2022-08-26T19:13:43.691Z,8.70
2022-08-26T19:16:16.660Z,10.55
2022-08-26T19:18:45.310Z,9.55
2022-08-26T19:21:13.973Z,9.68
2022-08-26T19:23:42.260Z,8.70
2022-08-26T19:26:11.343Z,9.02
2022-08-26T19:28:41.341Z,12.88
2022-08-26T19:31:10.989Z,10.43
2022-08-26T19:33:39.629Z,10.63
2022-08-26T19:36:12.648Z,10.43
2022-08-26T19:38:43.023Z,8.32
2022-08-26T19:41:13.213Z,13.07
2022-08-26T19:43:43.107Z,9.35
2022-08-26T19:46:17.461Z,12.15
2022-08-26T19:51:15.787Z,10.15
2022-08-26T19:53:44.751Z,12.05
2022-08-26T19:56:13.484Z,8.65
2022-08-26T19:58:43.530Z,14.15
2022-08-26T20:01:12.533Z,9.07
2022-08-26T20:03:41.432Z,8.30
2022-08-26T20:06:11.041Z,11.40
2022-08-26T20:08:40.355Z,7.80
2022-08-26T20:11:12.006Z,11.05
2022-08-26T20:13:41.034Z,10.40
2022-08-26T20:16:12.247Z,17.95
2022-08-26T20:18:58.889Z,11.82
2022-08-26T20:21:27.498Z,14.57
2022-08-26T20:23:58.425Z,10.30
2022-08-26T20:26:28.030Z,11.52
2022-08-26T20:28:56.619Z,8.73
2022-08-26T20:31:26.616Z,15.60
2022-08-26T20:33:55.776Z,13.40
2022-08-26T20:36:26.931Z,12.05
2022-08-26T20:38:55.557Z,11.13
2022-08-26T20:41:25.490Z,14.13
2022-08-26T20:43:53.946Z,11.35
2022-08-26T20:46:24.852Z,12.80
2022-08-26T20:48:55.610Z,14.52
2022-08-26T20:51:28.974Z,14.82
2022-08-26T20:53:57.396Z,11.77
2022-08-26T20:56:25.678Z,16.48
2022-08-26T20:58:55.860Z,17.00
2022-08-26T21:01:26.516Z,14.35
2022-08-26T21:03:57.382Z,13.18
2022-08-26T21:06:25.846Z,14.13
2022-08-26T21:08:54.926Z,10.45
2022-08-26T21:11:23.282Z,12.88
2022-08-26T21:14:15.998Z,13.95
2022-08-26T21:16:41.262Z,15.30
2022-08-26T21:19:12.970Z,13.43
2022-08-26T21:21:42.001Z,18.83
2022-08-26T21:24:10.776Z,16.13
2022-08-26T21:26:39.066Z,11.75
2022-08-26T21:29:09.925Z,12.60
2022-08-26T21:31:43.523Z,15.48
2022-08-26T21:34:17.556Z,13.25
2022-08-26T21:36:46.255Z,10.23
2022-08-26T21:39:15.009Z,12.02
2022-08-26T21:41:44.409Z,13.27
2022-08-26T21:44:13.696Z,11.98
2022-08-26T21:46:41.987Z,18.25
2022-08-26T21:49:13.208Z,13.80
2022-08-26T21:51:44.280Z,12.07
2022-08-26T21:56:44.366Z,10.07
2022-08-26T21:59:13.046Z,13.63
2022-08-26T22:01:41.687Z,15.25
2022-08-26T22:04:10.746Z,12.02
2022-08-26T22:06:43.572Z,11.75
2022-08-26T22:09:12.806Z,12.48
2022-08-26T22:11:41.127Z,15.40
2022-08-26T22:14:09.698Z,16.48
2022-08-26T22:16:38.462Z,19.27
2022-08-26T22:19:06.775Z,11.40
2022-08-26T22:21:35.846Z,16.00
2022-08-26T22:24:08.644Z,14.73
2022-08-26T22:26:36.872Z,16.35
2022-08-26T22:29:06.457Z,17.77
2022-08-26T22:31:37.978Z,16.42
2022-08-26T22:34:08.732Z,17.20
2022-08-26T22:36:43.191Z,12.68
2022-08-26T22:39:14.643Z,11.77
2022-08-26T22:41:43.379Z,21.27
2022-08-26T22:44:12.117Z,10.82
2022-08-26T22:46:41.484Z,14.98
2022-08-26T22:49:10.189Z,19.02
2022-08-26T22:51:38.582Z,15.48
2022-08-26T22:54:07.785Z,17.80
2022-08-26T22:56:38.050Z,13.07
2022-08-26T22:59:06.877Z,14.93
2022-08-26T23:01:37.387Z,14.93
2022-08-26T23:04:07.433Z,9.48
2022-08-26T23:06:36.964Z,14.93
2022-08-26T23:09:06.199Z,11.45
2022-08-26T23:11:34.439Z,15.55
2022-08-26T23:14:05.089Z,15.13
2022-08-26T23:16:40.928Z,14.68
2022-08-26T23:19:09.464Z,14.50
2022-08-26T23:21:37.959Z,12.05
2022-08-26T23:24:06.835Z,12.27
2022-08-26T23:26:35.242Z,11.88
2022-08-26T23:29:06.424Z,16.52
2022-08-26T23:31:34.856Z,12.02
2022-08-26T23:34:20.500Z,11.93
2022-08-26T23:36:48.998Z,11.82
2022-08-26T23:39:17.333Z,18.15
2022-08-26T23:41:45.857Z,13.05
2022-08-26T23:44:15.628Z,10.40
2022-08-26T23:46:44.382Z,12.00
2022-08-26T23:49:12.535Z,9.80
2022-08-26T23:51:58.651Z,9.32
2022-08-26T23:54:26.807Z,12.07
2022-08-26T23:56:55.246Z,13.25
2022-08-26T23:59:24.846Z,12.15
